createdAt,value
2022-08-07T00:00:18.559Z,0.00
2022-08-07T00:01:44.163Z,0.00
2022-08-07T00:02:40.629Z,0.00
2022-08-07T00:03:16.742Z,0.00
2022-08-07T00:04:15.842Z,0.00
2022-08-07T00:05:15.788Z,0.00
2022-08-07T00:06:15.739Z,0.00
2022-08-07T00:07:15.821Z,0.00
2022-08-07T00:08:15.701Z,0.00
2022-08-07T00:09:16.204Z,0.00
2022-08-07T00:10:27.256Z,0.00
2022-08-07T00:11:19.967Z,0.00
2022-08-07T00:12:19.345Z,0.00
2022-08-07T00:13:25.749Z,0.00
2022-08-07T00:14:16.613Z,0.00
2022-08-07T00:15:15.624Z,0.00
2022-08-07T00:16:17.535Z,0.00
2022-08-07T00:17:16.600Z,0.00
2022-08-07T00:18:19.850Z,0.00
2022-08-07T00:19:21.763Z,0.00
2022-08-07T00:20:29.971Z,0.00
2022-08-07T00:21:56.611Z,0.00
2022-08-07T00:22:24.649Z,0.00
2022-08-07T00:23:17.081Z,0.00
2022-08-07T00:24:15.495Z,0.00
2022-08-07T00:25:16.622Z,0.00
2022-08-07T00:26:31.166Z,0.00
2022-08-07T00:27:16.450Z,0.00
2022-08-07T00:28:15.514Z,0.00
2022-08-07T00:29:15.440Z,0.00
2022-08-07T00:30:26.646Z,0.00
2022-08-07T00:31:16.480Z,0.00
2022-08-07T00:32:15.401Z,0.00
2022-08-07T00:33:15.401Z,0.00
2022-08-07T00:34:15.374Z,0.00
2022-08-07T00:35:16.646Z,0.00
2022-08-07T00:36:15.357Z,0.00
2022-08-07T00:37:15.333Z,0.00
2022-08-07T00:38:15.351Z,0.00
2022-08-07T00:39:16.559Z,0.00
2022-08-07T00:40:15.312Z,0.00
2022-08-07T00:41:16.292Z,0.00
2022-08-07T00:42:15.305Z,0.00
2022-08-07T00:43:59.702Z,0.00
2022-08-07T00:44:16.272Z,0.00
2022-08-07T00:45:16.336Z,0.00
2022-08-07T00:46:15.246Z,0.00
2022-08-07T00:47:15.648Z,0.00
2022-08-07T00:48:16.232Z,0.00
2022-08-07T00:49:24.761Z,0.00
2022-08-07T00:50:19.097Z,0.00
2022-08-07T00:51:16.175Z,0.00
2022-08-07T00:52:19.834Z,0.00
2022-08-07T00:53:16.154Z,0.00
2022-08-07T00:54:15.165Z,0.00
2022-08-07T00:55:17.376Z,0.00
2022-08-07T00:56:16.124Z,0.00
2022-08-07T00:57:15.113Z,0.00
2022-08-07T00:58:15.099Z,0.00
2022-08-07T00:59:15.107Z,0.00
2022-08-07T01:00:15.075Z,0.00
2022-08-07T01:01:15.170Z,0.00
2022-08-07T01:02:29.273Z,0.00
2022-08-07T01:03:16.047Z,0.00
2022-08-07T01:04:24.583Z,0.00
2022-08-07T01:05:18.866Z,0.00
2022-08-07T01:06:15.749Z,0.00
2022-08-07T01:07:14.997Z,0.00
2022-08-07T01:08:14.987Z,0.00
2022-08-07T01:10:04.585Z,0.00
2022-08-07T01:10:15.960Z,0.00
2022-08-07T01:12:09.881Z,0.00
2022-08-07T01:12:28.639Z,0.00
2022-08-07T01:13:16.364Z,0.00
2022-08-07T01:14:15.459Z,0.00
2022-08-07T01:15:17.668Z,0.00
2022-08-07T01:16:14.889Z,0.00
2022-08-07T01:17:15.888Z,0.00
2022-08-07T01:18:17.644Z,0.00
2022-08-07T01:19:19.139Z,0.00
2022-08-07T01:20:17.192Z,0.00
2022-08-07T01:21:22.518Z,0.00
2022-08-07T01:22:16.256Z,0.00
2022-08-07T01:23:15.814Z,0.00
2022-08-07T01:24:14.796Z,0.00
2022-08-07T01:25:54.643Z,0.00
2022-08-07T01:26:16.699Z,0.00
2022-08-07T01:27:19.514Z,0.00
2022-08-07T01:28:15.748Z,0.00
2022-08-07T01:29:14.739Z,0.00
2022-08-07T01:30:14.747Z,0.00
2022-08-07T01:31:15.398Z,0.00
2022-08-07T01:32:14.699Z,0.00
2022-08-07T01:33:14.698Z,0.00
2022-08-07T01:34:14.686Z,0.00
2022-08-07T01:35:17.194Z,0.00
2022-08-07T01:36:15.082Z,0.00
2022-08-07T01:37:14.648Z,0.00
2022-08-07T01:38:14.640Z,0.00
2022-08-07T01:39:15.673Z,0.00
2022-08-07T01:40:14.929Z,0.00
2022-08-07T01:41:14.614Z,0.00
2022-08-07T01:42:38.373Z,0.00
2022-08-07T01:43:15.569Z,0.00
2022-08-07T01:44:14.561Z,0.00
2022-08-07T01:45:18.375Z,0.00
2022-08-07T01:46:15.560Z,0.00
2022-08-07T01:48:21.162Z,0.00
2022-08-07T01:48:21.722Z,0.00
2022-08-07T01:49:15.549Z,0.00
2022-08-07T01:50:14.499Z,0.00
2022-08-07T01:52:00.987Z,0.00
2022-08-07T01:52:15.483Z,0.00
2022-08-07T01:53:21.604Z,0.00
2022-08-07T01:54:33.387Z,0.00
2022-08-07T01:55:22.527Z,0.00
2022-08-07T01:56:15.445Z,0.00
2022-08-07T01:57:24.204Z,0.00
2022-08-07T01:58:27.448Z,0.00
2022-08-07T01:59:15.737Z,0.00
2022-08-07T02:00:14.381Z,0.00
2022-08-07T02:01:25.643Z,0.00
2022-08-07T02:02:32.648Z,0.00
2022-08-07T02:03:21.177Z,0.00
2022-08-07T02:04:15.360Z,0.00
2022-08-07T02:05:15.985Z,0.00
2022-08-07T02:06:30.789Z,0.00
2022-08-07T02:07:15.315Z,0.00
2022-08-07T02:08:14.285Z,0.00
2022-08-07T02:09:33.751Z,0.00
2022-08-07T02:10:15.258Z,0.00
2022-08-07T02:11:31.039Z,0.00
2022-08-07T02:12:15.248Z,0.00
2022-08-07T02:13:14.253Z,0.00
2022-08-07T02:14:35.458Z,0.00
2022-08-07T02:15:15.193Z,0.00
2022-08-07T02:16:14.187Z,0.00
2022-08-07T02:17:16.511Z,0.00
2022-08-07T02:18:15.189Z,0.00
2022-08-07T02:20:04.629Z,0.00
2022-08-07T02:20:17.431Z,0.00
2022-08-07T02:21:16.150Z,0.00
2022-08-07T02:22:14.128Z,0.00
2022-08-07T02:23:14.153Z,0.00
2022-08-07T02:24:17.811Z,0.00
2022-08-07T02:25:18.107Z,0.00
2022-08-07T02:26:32.424Z,0.00
2022-08-07T02:27:15.072Z,0.00
2022-08-07T02:28:14.065Z,0.00
2022-08-07T02:29:15.030Z,0.00
2022-08-07T02:30:15.024Z,0.00
2022-08-07T02:31:28.243Z,0.00
2022-08-07T02:32:15.002Z,0.00
2022-08-07T02:33:13.994Z,0.00
2022-08-07T02:34:17.276Z,0.00
2022-08-07T02:35:13.974Z,0.00
2022-08-07T02:36:30.727Z,0.00
2022-08-07T02:37:14.949Z,0.00
2022-08-07T02:38:13.939Z,0.00
2022-08-07T02:39:17.318Z,0.00
2022-08-07T02:40:30.266Z,0.00
2022-08-07T02:41:14.940Z,0.00
2022-08-07T02:42:16.364Z,0.00
2022-08-07T02:43:13.878Z,0.00
2022-08-07T02:44:13.889Z,0.00
2022-08-07T02:45:58.921Z,0.00
2022-08-07T02:46:15.136Z,0.00
2022-08-07T02:47:19.540Z,0.00
2022-08-07T02:48:15.723Z,0.00
2022-08-07T02:49:29.117Z,0.00
2022-08-07T02:50:14.788Z,0.00
2022-08-07T02:51:29.046Z,0.00
2022-08-07T02:52:14.767Z,0.00
2022-08-07T02:53:13.760Z,0.00
2022-08-07T02:54:13.767Z,0.00
2022-08-07T02:55:27.554Z,0.00
2022-08-07T02:56:21.210Z,0.00
2022-08-07T02:57:14.715Z,0.00
2022-08-07T02:58:13.720Z,0.00
2022-08-07T02:59:13.709Z,0.00
2022-08-07T03:00:13.699Z,0.00
2022-08-07T03:01:18.558Z,0.00
2022-08-07T03:02:14.709Z,0.00
2022-08-07T03:03:13.829Z,0.00
2022-08-07T03:04:14.620Z,0.00
2022-08-07T03:05:20.549Z,0.00
2022-08-07T03:06:16.342Z,0.00
2022-08-07T03:07:13.602Z,0.00
2022-08-07T03:08:13.776Z,0.00
2022-08-07T03:09:13.572Z,0.00
2022-08-07T03:10:14.230Z,0.00
2022-08-07T03:11:13.544Z,0.00
2022-08-07T03:12:22.174Z,0.00
2022-08-07T03:13:14.511Z,0.00
2022-08-07T03:14:13.511Z,0.00
2022-08-07T03:15:13.514Z,0.00
2022-08-07T03:16:14.493Z,0.00
2022-08-07T03:17:13.474Z,0.00
2022-08-07T03:18:17.537Z,0.00
2022-08-07T03:19:14.454Z,0.00
2022-08-07T03:20:13.431Z,0.00
2022-08-07T03:21:13.440Z,0.00
2022-08-07T03:22:18.790Z,0.00
2022-08-07T03:23:18.879Z,0.00
2022-08-07T03:24:20.376Z,0.00
2022-08-07T03:25:14.381Z,0.00
2022-08-07T03:26:15.661Z,0.00
2022-08-07T03:27:14.354Z,0.00
2022-08-07T03:28:38.460Z,0.00
2022-08-07T03:29:14.893Z,0.00
2022-08-07T03:30:13.321Z,0.00
2022-08-07T03:31:13.320Z,0.00
2022-08-07T03:32:13.714Z,0.00
2022-08-07T03:33:13.289Z,0.00
2022-08-07T03:34:18.739Z,0.00
2022-08-07T03:35:17.597Z,4.00
2022-08-07T03:36:13.244Z,4.00
2022-08-07T03:37:13.262Z,0.00
2022-08-07T03:38:13.451Z,0.00
2022-08-07T03:39:13.345Z,4.00
2022-08-07T03:40:15.923Z,0.00
2022-08-07T03:41:13.193Z,4.00
2022-08-07T03:42:13.222Z,0.00
2022-08-07T03:43:14.376Z,4.00
2022-08-07T03:44:13.156Z,4.00
2022-08-07T03:45:30.190Z,4.00
2022-08-07T03:46:18.610Z,4.00
2022-08-07T03:47:14.687Z,8.00
2022-08-07T03:48:13.102Z,8.00
2022-08-07T03:49:13.100Z,8.00
2022-08-07T03:50:13.083Z,8.00
2022-08-07T03:51:13.085Z,12.00
2022-08-07T03:52:22.357Z,12.00
2022-08-07T03:53:14.065Z,12.00
2022-08-07T03:54:36.096Z,20.00
2022-08-07T03:55:14.027Z,20.00
2022-08-07T03:56:13.773Z,24.00
2022-08-07T03:59:05.196Z,24.00
2022-08-07T03:59:05.242Z,28.00
2022-08-07T03:59:14.141Z,32.00
2022-08-07T04:00:12.967Z,36.00
2022-08-07T04:01:13.806Z,36.00
2022-08-07T04:02:12.945Z,40.00
2022-08-07T04:03:12.950Z,44.00
2022-08-07T04:04:17.271Z,48.00
2022-08-07T04:05:12.917Z,52.00
2022-08-07T04:06:36.370Z,56.00
2022-08-07T04:07:17.362Z,56.00
2022-08-07T04:08:12.896Z,64.00
2022-08-07T04:09:15.302Z,68.00
2022-08-07T04:10:15.741Z,76.00
2022-08-07T04:12:20.659Z,84.00
2022-08-07T04:12:27.462Z,88.00
2022-08-07T04:13:15.351Z,96.00
2022-08-07T04:14:38.114Z,104.00
2022-08-07T04:15:13.796Z,112.00
2022-08-07T04:16:12.780Z,120.00
2022-08-07T04:17:19.810Z,124.00
2022-08-07T04:18:58.537Z,136.00
2022-08-07T04:19:15.352Z,140.00
2022-08-07T04:20:12.727Z,148.00
2022-08-07T04:21:12.729Z,156.00
2022-08-07T04:22:17.521Z,168.00
2022-08-07T04:23:19.223Z,176.00
2022-08-07T04:24:30.360Z,184.00
2022-08-07T04:25:13.681Z,196.00
2022-08-07T04:26:12.660Z,204.00
2022-08-07T04:27:15.280Z,212.00
2022-08-07T04:28:13.667Z,220.00
2022-08-07T04:29:12.647Z,228.00
2022-08-07T04:30:21.584Z,236.00
2022-08-07T04:31:20.190Z,248.00
2022-08-07T04:32:13.579Z,260.00
2022-08-07T04:33:15.570Z,268.00
2022-08-07T04:34:16.924Z,280.00
2022-08-07T04:35:12.557Z,288.00
2022-08-07T04:36:12.539Z,300.00
2022-08-07T04:37:20.160Z,304.00
2022-08-07T04:38:13.514Z,312.00
2022-08-07T04:39:12.590Z,324.00
2022-08-07T04:40:12.512Z,328.00
2022-08-07T04:41:13.995Z,340.00
2022-08-07T04:42:13.469Z,352.00
2022-08-07T04:43:12.459Z,360.00
2022-08-07T04:44:18.567Z,372.00
2022-08-07T04:45:13.449Z,384.00
2022-08-07T04:46:12.547Z,396.00
2022-08-07T04:47:23.529Z,408.00
2022-08-07T04:48:13.729Z,436.00
2022-08-07T04:49:17.936Z,468.00
2022-08-07T04:50:13.400Z,484.00
2022-08-07T04:51:12.387Z,504.00
2022-08-07T04:52:12.354Z,528.00
2022-08-07T04:53:27.762Z,548.00
2022-08-07T04:54:13.338Z,568.00
2022-08-07T04:55:15.317Z,588.00
2022-08-07T04:58:16.042Z,608.00
2022-08-07T04:58:16.965Z,636.00
2022-08-07T04:58:43.121Z,656.00
2022-08-07T05:00:09.838Z,676.00
2022-08-07T05:00:19.052Z,696.00
2022-08-07T05:01:13.499Z,720.00
2022-08-07T05:02:16.968Z,768.00
2022-08-07T05:03:31.144Z,848.00
2022-08-07T05:04:17.271Z,960.00
2022-08-07T05:05:53.407Z,1080.00
2022-08-07T05:06:19.501Z,1224.00
2022-08-07T05:07:20.420Z,1424.00
2022-08-07T05:08:13.162Z,1684.00
2022-08-07T05:09:12.162Z,2000.00
2022-08-07T05:10:12.165Z,2324.00
2022-08-07T05:11:19.353Z,2616.00
2022-08-07T05:12:13.137Z,2884.00
2022-08-07T05:14:52.510Z,3624.00
2022-08-07T05:14:55.860Z,3220.00
2022-08-07T05:15:13.097Z,3968.00
2022-08-07T05:16:13.066Z,4276.00
2022-08-07T05:17:12.224Z,4584.00
2022-08-07T05:18:13.051Z,4828.00
2022-08-07T05:19:12.041Z,5800.00
2022-08-07T05:20:12.020Z,7292.00
2022-08-07T05:21:12.011Z,7308.00
2022-08-07T05:22:12.004Z,6584.00
2022-08-07T05:23:16.203Z,6144.00
2022-08-07T05:24:11.984Z,6128.00
2022-08-07T05:25:25.769Z,6644.00
2022-08-07T05:26:18.863Z,6680.00
2022-08-07T05:28:00.758Z,6752.00
2022-08-07T05:28:19.872Z,6924.00
2022-08-07T05:29:12.923Z,7100.00
2022-08-07T05:30:11.902Z,6764.00
2022-08-07T05:31:11.894Z,7072.00
2022-08-07T05:32:11.885Z,7548.00
2022-08-07T05:33:11.913Z,7948.00
2022-08-07T05:34:12.232Z,8644.00
2022-08-07T05:35:11.865Z,8968.00
2022-08-07T05:36:12.204Z,7716.00
2022-08-07T05:37:12.824Z,7952.00
2022-08-07T05:38:11.817Z,8320.00
2022-08-07T05:40:05.054Z,9132.00
2022-08-07T05:40:18.769Z,9316.00
2022-08-07T05:41:15.622Z,9600.00
2022-08-07T05:42:12.951Z,9556.00
2022-08-07T05:43:11.788Z,9488.00
2022-08-07T05:44:12.921Z,8168.00
2022-08-07T05:45:14.328Z,7380.00
2022-08-07T05:46:12.724Z,7004.00
2022-08-07T05:47:18.315Z,6496.00
2022-08-07T05:48:12.704Z,6472.00
2022-08-07T05:49:12.954Z,6560.00
2022-08-07T05:50:11.696Z,6384.00
2022-08-07T05:51:11.667Z,6656.00
2022-08-07T05:52:11.993Z,6284.00
2022-08-07T05:54:12.532Z,6248.00
2022-08-07T05:54:31.340Z,6220.00
2022-08-07T05:55:12.629Z,6288.00
2022-08-07T05:56:12.476Z,6388.00
2022-08-07T05:57:11.598Z,6568.00
2022-08-07T05:58:11.601Z,6252.00
2022-08-07T05:59:11.572Z,6408.00
2022-08-07T06:00:16.283Z,6548.00
2022-08-07T06:01:12.541Z,7084.00
2022-08-07T06:02:11.581Z,7296.00
2022-08-07T06:03:11.532Z,7588.00
2022-08-07T06:04:11.516Z,7732.00
2022-08-07T06:05:15.567Z,7872.00
2022-08-07T06:06:11.490Z,8272.00
2022-08-07T06:07:22.766Z,8556.00
2022-08-07T06:08:29.424Z,8752.00
2022-08-07T06:09:12.450Z,8640.00
2022-08-07T06:10:15.329Z,8052.00
2022-08-07T06:11:11.444Z,7728.00
2022-08-07T06:12:11.459Z,7376.00
2022-08-07T06:13:13.326Z,7364.00
2022-08-07T06:14:20.822Z,8080.00
2022-08-07T06:15:15.992Z,9668.00
2022-08-07T06:16:13.446Z,9596.00
2022-08-07T06:17:11.364Z,9392.00
2022-08-07T06:18:12.165Z,8132.00
2022-08-07T06:19:17.847Z,8388.00
2022-08-07T06:20:25.482Z,10848.00
2022-08-07T06:22:16.918Z,13408.00
2022-08-07T06:22:23.153Z,12072.00
2022-08-07T06:23:45.983Z,9820.00
2022-08-07T06:24:52.221Z,9592.00
2022-08-07T06:25:12.260Z,9348.00
2022-08-07T06:26:11.280Z,9148.00
2022-08-07T06:27:11.252Z,8984.00
2022-08-07T06:28:14.154Z,8932.00
2022-08-07T06:29:11.224Z,9224.00
2022-08-07T06:30:24.079Z,9108.00
2022-08-07T06:31:12.225Z,8928.00
2022-08-07T06:32:11.187Z,8276.00
2022-08-07T06:33:16.092Z,7380.00
2022-08-07T06:34:12.166Z,6848.00
2022-08-07T06:35:18.010Z,6660.00
2022-08-07T06:36:13.767Z,6768.00
2022-08-07T06:37:11.350Z,6920.00
2022-08-07T06:38:20.064Z,7060.00
2022-08-07T06:40:13.081Z,7684.00
2022-08-07T06:40:16.703Z,7904.00
2022-08-07T06:41:12.940Z,7168.00
2022-08-07T06:42:11.144Z,7040.00
2022-08-07T06:43:21.391Z,6972.00
2022-08-07T06:44:12.056Z,7256.00
2022-08-07T06:45:11.382Z,7700.00
2022-08-07T06:46:11.557Z,8060.00
2022-08-07T06:47:15.196Z,8184.00
2022-08-07T06:48:11.338Z,8128.00
2022-08-07T06:49:10.990Z,8180.00
2022-08-07T06:50:11.044Z,8120.00
2022-08-07T06:51:10.968Z,8284.00
2022-08-07T06:52:10.982Z,8760.00
2022-08-07T06:53:18.628Z,8912.00
2022-08-07T06:55:31.764Z,9112.00
2022-08-07T06:55:34.502Z,9272.00
2022-08-07T06:56:15.343Z,9996.00
2022-08-07T06:57:10.903Z,9968.00
2022-08-07T06:58:10.908Z,15456.00
2022-08-07T07:00:13.647Z,18272.00
2022-08-07T07:00:18.190Z,18048.00
2022-08-07T07:01:11.902Z,18464.00
2022-08-07T07:02:11.350Z,19840.00
2022-08-07T07:03:14.310Z,21440.00
2022-08-07T07:04:32.546Z,21984.00
2022-08-07T07:05:12.705Z,21696.00
2022-08-07T07:06:11.191Z,20448.00
2022-08-07T07:07:19.264Z,15008.00
2022-08-07T07:08:12.551Z,12140.00
2022-08-07T07:09:11.776Z,19872.00
2022-08-07T07:10:11.751Z,21184.00
2022-08-07T07:11:14.051Z,12856.00
2022-08-07T07:12:19.245Z,10748.00
2022-08-07T07:13:11.715Z,12752.00
2022-08-07T07:14:10.744Z,12868.00
2022-08-07T07:15:23.627Z,7844.00
2022-08-07T07:16:11.686Z,6572.00
2022-08-07T07:17:10.699Z,6064.00
2022-08-07T07:18:11.666Z,5780.00
2022-08-07T07:19:34.054Z,5680.00
2022-08-07T07:20:11.637Z,5660.00
2022-08-07T07:21:13.641Z,5612.00
2022-08-07T07:22:36.280Z,5496.00
2022-08-07T07:24:10.800Z,5324.00
2022-08-07T07:24:12.981Z,5256.00
2022-08-07T07:26:31.126Z,5204.00
2022-08-07T07:26:34.882Z,6456.00
2022-08-07T07:27:11.562Z,9876.00
2022-08-07T07:28:41.948Z,4548.00
2022-08-07T07:29:40.657Z,5736.00
2022-08-07T07:30:12.124Z,5008.00
2022-08-07T07:31:10.510Z,4676.00
2022-08-07T07:32:10.506Z,4640.00
2022-08-07T07:33:11.606Z,4508.00
2022-08-07T07:34:10.478Z,4316.00
2022-08-07T07:35:11.503Z,4280.00
2022-08-07T07:36:13.514Z,4124.00
2022-08-07T07:37:22.022Z,3984.00
2022-08-07T07:38:11.518Z,3924.00
2022-08-07T07:39:10.585Z,3880.00
2022-08-07T07:40:14.972Z,3612.00
2022-08-07T07:41:11.515Z,3524.00
2022-08-07T07:42:14.021Z,3520.00
2022-08-07T07:43:15.255Z,3592.00
2022-08-07T07:44:17.969Z,3576.00
2022-08-07T07:45:11.408Z,3544.00
2022-08-07T07:46:38.539Z,3344.00
2022-08-07T07:47:15.724Z,3364.00
2022-08-07T07:48:11.411Z,3392.00
2022-08-07T07:50:34.442Z,3440.00
2022-08-07T07:50:35.717Z,3400.00
2022-08-07T07:51:11.288Z,6052.00
2022-08-07T07:52:10.304Z,8508.00
2022-08-07T07:53:20.535Z,3376.00
2022-08-07T07:54:11.263Z,3416.00
2022-08-07T07:55:10.895Z,3360.00
2022-08-07T07:56:10.238Z,3460.00
2022-08-07T07:57:10.216Z,3472.00
2022-08-07T07:58:10.230Z,3368.00
2022-08-07T07:59:10.196Z,3768.00
2022-08-07T08:00:10.197Z,3752.00
2022-08-07T08:02:03.206Z,3772.00
2022-08-07T08:02:11.251Z,3784.00
2022-08-07T08:03:16.339Z,3772.00
2022-08-07T08:04:11.967Z,3848.00
2022-08-07T08:05:11.350Z,3828.00
2022-08-07T08:06:13.049Z,3952.00
2022-08-07T08:07:10.120Z,3704.00
2022-08-07T08:08:10.107Z,3648.00
2022-08-07T08:09:11.111Z,3372.00
2022-08-07T08:10:10.109Z,3072.00
2022-08-07T08:11:16.538Z,3044.00
2022-08-07T08:12:11.053Z,2884.00
2022-08-07T08:13:10.313Z,2860.00
2022-08-07T08:14:11.202Z,2692.00
2022-08-07T08:15:10.057Z,2656.00
2022-08-07T08:16:12.742Z,2560.00
2022-08-07T08:18:18.061Z,2508.00
2022-08-07T08:18:36.531Z,2540.00
2022-08-07T08:20:15.720Z,2532.00
2022-08-07T08:20:22.415Z,2488.00
2022-08-07T08:21:10.954Z,2460.00
2022-08-07T08:22:10.644Z,2468.00
2022-08-07T08:23:09.937Z,2460.00
2022-08-07T08:24:18.575Z,2448.00
2022-08-07T08:25:25.131Z,2440.00
2022-08-07T08:26:10.896Z,2448.00
2022-08-07T08:27:09.882Z,2424.00
2022-08-07T08:28:09.879Z,2424.00
2022-08-07T08:29:09.856Z,2416.00
2022-08-07T08:30:11.404Z,2412.00
2022-08-07T08:31:16.031Z,2404.00
2022-08-07T08:32:18.567Z,2388.00
2022-08-07T08:33:16.113Z,2392.00
2022-08-07T08:34:12.449Z,2376.00
2022-08-07T08:35:10.814Z,2368.00
2022-08-07T08:36:09.794Z,2364.00
2022-08-07T08:38:01.684Z,2356.00
2022-08-07T08:38:10.913Z,2348.00
2022-08-07T08:39:09.768Z,2344.00
2022-08-07T08:40:12.327Z,2332.00
2022-08-07T08:41:10.718Z,2332.00
2022-08-07T08:42:09.712Z,2320.00
2022-08-07T08:43:09.726Z,2316.00
2022-08-07T08:44:09.689Z,2284.00
2022-08-07T08:45:13.076Z,2292.00
2022-08-07T08:46:09.685Z,2296.00
2022-08-07T08:47:10.081Z,2276.00
2022-08-07T08:48:10.752Z,2272.00
2022-08-07T08:49:09.795Z,2252.00
2022-08-07T08:50:09.611Z,2248.00
2022-08-07T08:51:14.774Z,2240.00
2022-08-07T08:52:13.909Z,2240.00
2022-08-07T08:53:09.585Z,2236.00
2022-08-07T08:54:09.574Z,2204.00
2022-08-07T08:55:09.551Z,2220.00
2022-08-07T08:56:10.544Z,2204.00
2022-08-07T08:57:09.524Z,2200.00
2022-08-07T08:58:13.299Z,2192.00
2022-08-07T08:59:13.513Z,2180.00
2022-08-07T09:00:10.504Z,2180.00
2022-08-07T09:01:15.391Z,2168.00
2022-08-07T09:02:10.511Z,2152.00
2022-08-07T09:03:09.461Z,2104.00
2022-08-07T09:04:11.013Z,2064.00
2022-08-07T09:05:09.436Z,2100.00
2022-08-07T09:06:11.461Z,2060.00
2022-08-07T09:07:11.317Z,2120.00
2022-08-07T09:08:09.391Z,2112.00
2022-08-07T09:09:20.766Z,2104.00
2022-08-07T09:10:10.393Z,2096.00
2022-08-07T09:11:09.366Z,2076.00
2022-08-07T09:12:19.992Z,2076.00
2022-08-07T09:13:10.337Z,2056.00
2022-08-07T09:14:09.599Z,2068.00
2022-08-07T09:16:22.612Z,2000.00
2022-08-07T09:16:25.763Z,2044.00
2022-08-07T09:17:10.291Z,2012.00
2022-08-07T09:18:15.786Z,2020.00
2022-08-07T09:19:52.942Z,1988.00
2022-08-07T09:20:34.962Z,1980.00
2022-08-07T09:21:13.775Z,1964.00
2022-08-07T09:22:37.058Z,1972.00
2022-08-07T09:24:31.969Z,1972.00
2022-08-07T09:24:33.628Z,1956.00
2022-08-07T09:25:17.301Z,1952.00
2022-08-07T09:26:10.212Z,1940.00
2022-08-07T09:27:13.407Z,1928.00
2022-08-07T09:30:01.206Z,1920.00
2022-08-07T09:30:01.792Z,1916.00
2022-08-07T09:30:10.194Z,1924.00
2022-08-07T09:31:09.141Z,1916.00
2022-08-07T09:32:17.175Z,1908.00
2022-08-07T09:33:16.645Z,1896.00
2022-08-07T09:34:10.092Z,1840.00
2022-08-07T09:36:04.016Z,1856.00
2022-08-07T09:36:10.072Z,1848.00
2022-08-07T09:37:09.098Z,1844.00
2022-08-07T09:38:10.307Z,1848.00
2022-08-07T09:39:18.069Z,1816.00
2022-08-07T09:40:10.072Z,1836.00
2022-08-07T09:41:09.035Z,1804.00
2022-08-07T09:42:09.284Z,1824.00
2022-08-07T09:43:09.013Z,1816.00
2022-08-07T09:44:19.234Z,1796.00
2022-08-07T09:47:24.220Z,1796.00
2022-08-07T09:47:42.457Z,1800.00
2022-08-07T09:47:55.261Z,1776.00
2022-08-07T09:48:11.616Z,1740.00
2022-08-07T09:50:02.605Z,1764.00
2022-08-07T09:50:18.930Z,1752.00
2022-08-07T09:51:26.033Z,1740.00
2022-08-07T09:52:33.641Z,1736.00
2022-08-07T09:53:09.907Z,1732.00
2022-08-07T09:54:11.495Z,1740.00
2022-08-07T09:55:28.726Z,1724.00
2022-08-07T09:56:09.846Z,1716.00
2022-08-07T09:57:12.941Z,1704.00
2022-08-07T09:58:09.820Z,1692.00
2022-08-07T09:59:14.063Z,1692.00
2022-08-07T10:00:14.468Z,1692.00
2022-08-07T10:01:23.276Z,1688.00
2022-08-07T10:02:09.781Z,1680.00
2022-08-07T10:04:05.809Z,1676.00
2022-08-07T10:04:14.843Z,1664.00
2022-08-07T10:05:12.550Z,1656.00
2022-08-07T10:06:12.275Z,1652.00
2022-08-07T10:07:24.605Z,1648.00
2022-08-07T10:08:09.731Z,1608.00
2022-08-07T10:09:08.752Z,1568.00
2022-08-07T10:10:11.961Z,1576.00
2022-08-07T10:11:17.255Z,1560.00
2022-08-07T10:12:18.099Z,1552.00
2022-08-07T10:13:10.960Z,1612.00
2022-08-07T10:14:11.278Z,1600.00
2022-08-07T10:15:08.629Z,1588.00
2022-08-07T10:16:09.753Z,1576.00
2022-08-07T10:17:14.065Z,1552.00
2022-08-07T10:18:09.592Z,1536.00
2022-08-07T10:19:11.355Z,1524.00
2022-08-07T10:20:12.889Z,1500.00
2022-08-07T10:21:20.031Z,1492.00
2022-08-07T10:22:16.282Z,1484.00
2022-08-07T10:23:09.723Z,1476.00
2022-08-07T10:24:09.959Z,1468.00
2022-08-07T10:25:08.537Z,1460.00
2022-08-07T10:26:08.522Z,1436.00
2022-08-07T10:27:10.471Z,1440.00
2022-08-07T10:28:08.482Z,1428.00
2022-08-07T10:29:08.467Z,1412.00
2022-08-07T10:30:12.435Z,1404.00
2022-08-07T10:31:11.035Z,1408.00
2022-08-07T10:32:36.901Z,1396.00
2022-08-07T10:33:09.428Z,1388.00
2022-08-07T10:34:15.059Z,1384.00
2022-08-07T10:35:14.876Z,1368.00
2022-08-07T10:36:11.292Z,1372.00
2022-08-07T10:37:12.309Z,1364.00
2022-08-07T10:38:20.938Z,1356.00
2022-08-07T10:39:09.480Z,1344.00
2022-08-07T10:40:09.178Z,1336.00
2022-08-07T10:41:08.352Z,1328.00
2022-08-07T10:42:09.767Z,1324.00
2022-08-07T10:43:09.321Z,1312.00
2022-08-07T10:44:08.299Z,1300.00
2022-08-07T10:45:08.301Z,1288.00
2022-08-07T10:46:08.312Z,1276.00
2022-08-07T10:47:11.904Z,1256.00
2022-08-07T10:48:09.721Z,1172.00
2022-08-07T10:49:08.259Z,1260.00
2022-08-07T10:50:08.232Z,1248.00
2022-08-07T10:51:16.825Z,1180.00
2022-08-07T10:52:13.773Z,1232.00
2022-08-07T10:53:09.136Z,1216.00
2022-08-07T10:54:08.219Z,1192.00
2022-08-07T10:55:26.971Z,1196.00
2022-08-07T10:56:09.192Z,1200.00
2022-08-07T10:57:09.401Z,1180.00
2022-08-07T10:58:08.144Z,1180.00
2022-08-07T10:59:08.132Z,1164.00
2022-08-07T11:00:08.888Z,1156.00
2022-08-07T11:01:11.680Z,1148.00
2022-08-07T11:02:27.219Z,1144.00
2022-08-07T11:03:11.344Z,1132.00
2022-08-07T11:04:23.326Z,1120.00
2022-08-07T11:05:10.755Z,1120.00
2022-08-07T11:06:08.069Z,1108.00
2022-08-07T11:07:14.839Z,1100.00
2022-08-07T11:08:09.304Z,1088.00
2022-08-07T11:09:11.540Z,1088.00
2022-08-07T11:10:10.855Z,1076.00
2022-08-07T11:11:07.999Z,1076.00
2022-08-07T11:12:08.008Z,1056.00
2022-08-07T11:14:41.764Z,1060.00
2022-08-07T11:14:44.756Z,1048.00
2022-08-07T11:15:14.722Z,1048.00
2022-08-07T11:16:08.937Z,1044.00
2022-08-07T11:17:09.031Z,1036.00
2022-08-07T11:18:09.558Z,1028.00
2022-08-07T11:19:07.919Z,1020.00
2022-08-07T11:20:07.905Z,1016.00
2022-08-07T11:21:07.893Z,1004.00
2022-08-07T11:22:18.742Z,1004.00
2022-08-07T11:23:09.251Z,1000.00
2022-08-07T11:24:08.493Z,988.00
2022-08-07T11:25:07.852Z,984.00
2022-08-07T11:26:07.840Z,980.00
2022-08-07T11:27:07.820Z,972.00
2022-08-07T11:28:09.040Z,968.00
2022-08-07T11:29:13.105Z,968.00
2022-08-07T11:30:18.709Z,960.00
2022-08-07T11:31:11.452Z,956.00
2022-08-07T11:32:07.750Z,940.00
2022-08-07T11:33:08.143Z,944.00
2022-08-07T11:34:10.263Z,936.00
2022-08-07T11:35:09.377Z,932.00
2022-08-07T11:36:10.099Z,928.00
2022-08-07T11:37:11.789Z,928.00
2022-08-07T11:38:10.142Z,920.00
2022-08-07T11:39:07.761Z,904.00
2022-08-07T11:40:07.753Z,900.00
2022-08-07T11:41:07.667Z,896.00
2022-08-07T11:42:07.647Z,892.00
2022-08-07T11:43:08.634Z,876.00
2022-08-07T11:44:12.270Z,884.00
2022-08-07T11:45:07.616Z,884.00
2022-08-07T11:46:07.595Z,880.00
2022-08-07T11:47:07.597Z,868.00
2022-08-07T11:48:13.892Z,872.00
2022-08-07T11:49:50.717Z,864.00
2022-08-07T11:50:30.453Z,852.00
2022-08-07T11:51:09.030Z,852.00
2022-08-07T11:52:07.605Z,856.00
2022-08-07T11:53:07.525Z,848.00
2022-08-07T11:54:10.105Z,844.00
2022-08-07T11:55:13.117Z,844.00
2022-08-07T11:56:25.688Z,836.00
2022-08-07T11:57:12.808Z,832.00
2022-08-07T11:58:16.313Z,832.00
2022-08-07T12:00:08.086Z,828.00
2022-08-07T12:00:18.761Z,824.00
2022-08-07T12:01:08.427Z,820.00
2022-08-07T12:02:17.809Z,808.00
2022-08-07T12:03:08.467Z,808.00
2022-08-07T12:04:08.405Z,804.00
2022-08-07T12:05:15.025Z,788.00
2022-08-07T12:06:36.442Z,796.00
2022-08-07T12:07:20.360Z,788.00
2022-08-07T12:08:08.338Z,784.00
2022-08-07T12:09:08.341Z,784.00
2022-08-07T12:10:08.444Z,776.00
2022-08-07T12:11:20.233Z,780.00
2022-08-07T12:12:10.937Z,772.00
2022-08-07T12:13:11.665Z,772.00
2022-08-07T12:14:08.272Z,768.00
2022-08-07T12:15:08.090Z,764.00
2022-08-07T12:16:09.178Z,764.00
2022-08-07T12:17:07.248Z,760.00
2022-08-07T12:18:08.221Z,740.00
2022-08-07T12:19:07.214Z,752.00
2022-08-07T12:20:19.991Z,752.00
2022-08-07T12:21:08.185Z,748.00
2022-08-07T12:22:38.654Z,748.00
2022-08-07T12:23:09.237Z,748.00
2022-08-07T12:24:37.332Z,748.00
2022-08-07T12:25:08.146Z,756.00
2022-08-07T12:26:29.042Z,756.00
2022-08-07T12:27:13.215Z,756.00
2022-08-07T12:28:09.303Z,752.00
2022-08-07T12:29:07.104Z,768.00
2022-08-07T12:30:07.421Z,768.00
2022-08-07T12:31:09.291Z,780.00